createdAt,value
2019-06-27T00:00:27.468Z,25.77
2019-06-27T00:02:56.950Z,25.70
2019-06-27T00:05:26.621Z,25.57
2019-06-27T00:07:56.079Z,25.54
2019-06-27T00:10:25.564Z,25.57
2019-06-27T00:12:55.050Z,25.62
2019-06-27T00:15:24.557Z,25.64
2019-06-27T00:17:53.996Z,25.60
2019-06-27T00:20:23.483Z,25.59
2019-06-27T00:22:53.060Z,25.58
2019-06-27T00:25:22.600Z,25.62
2019-06-27T00:27:52.079Z,25.62
2019-06-27T00:30:21.741Z,25.65
2019-06-27T00:32:51.260Z,25.64
2019-06-27T00:35:20.739Z,25.64
2019-06-27T00:37:50.298Z,25.57
2019-06-27T00:40:19.818Z,25.55
2019-06-27T00:42:49.310Z,25.53
2019-06-27T00:45:18.715Z,25.46
2019-06-27T00:47:48.238Z,25.42
2019-06-27T00:50:18.125Z,25.41
2019-06-27T00:52:47.535Z,25.35
2019-06-27T00:55:17.041Z,25.28
2019-06-27T00:57:46.559Z,25.31
2019-06-27T01:00:16.734Z,25.29
2019-06-27T01:02:46.179Z,25.26
2019-06-27T01:05:15.691Z,25.29
2019-06-27T01:07:45.235Z,25.30
2019-06-27T01:10:14.754Z,25.26
2019-06-27T01:12:44.248Z,25.25
2019-06-27T01:15:13.864Z,25.22
2019-06-27T01:17:43.364Z,25.22
2019-06-27T01:20:12.852Z,25.18
2019-06-27T01:22:42.329Z,25.12
2019-06-27T01:25:11.842Z,25.06
2019-06-27T01:27:41.662Z,24.97
2019-06-27T01:30:11.135Z,24.98
2019-06-27T01:32:40.578Z,24.96
2019-06-27T01:35:10.175Z,24.95
2019-06-27T01:37:39.663Z,24.96
2019-06-27T01:40:09.068Z,24.97
2019-06-27T01:42:38.584Z,25.01
2019-06-27T01:45:25.108Z,24.96
2019-06-27T01:47:54.538Z,24.91
2019-06-27T01:50:24.020Z,24.94
2019-06-27T01:52:53.515Z,24.90
2019-06-27T01:55:23.019Z,24.90
2019-06-27T01:57:52.505Z,24.90
2019-06-27T02:00:22.021Z,24.87
2019-06-27T02:02:51.600Z,24.91
2019-06-27T02:05:21.082Z,24.91
2019-06-27T02:07:50.573Z,24.88
2019-06-27T02:10:21.091Z,24.86
2019-06-27T02:12:50.570Z,24.86
2019-06-27T02:15:22.231Z,24.85
2019-06-27T02:17:51.271Z,24.83
2019-06-27T02:20:20.682Z,24.75
2019-06-27T02:22:50.166Z,24.74
2019-06-27T02:25:19.626Z,24.71
2019-06-27T02:28:02.694Z,24.64
2019-06-27T02:30:33.599Z,24.54
2019-06-27T02:33:03.106Z,24.59
2019-06-27T02:35:32.524Z,24.57
2019-06-27T02:38:02.027Z,24.53
2019-06-27T02:40:31.510Z,24.49
2019-06-27T02:43:01.003Z,24.46
2019-06-27T02:45:30.515Z,24.51
2019-06-27T02:47:59.929Z,24.46
2019-06-27T02:50:29.335Z,24.43
2019-06-27T02:52:58.943Z,24.42
2019-06-27T02:55:28.421Z,24.36
2019-06-27T02:57:57.895Z,24.32
2019-06-27T03:00:27.265Z,24.28
2019-06-27T03:02:56.768Z,24.29
2019-06-27T03:05:26.261Z,24.30
2019-06-27T03:07:55.714Z,24.30
2019-06-27T03:10:25.182Z,24.31
2019-06-27T03:12:54.683Z,24.33
2019-06-27T03:15:24.137Z,24.36
2019-06-27T03:17:53.548Z,24.34
2019-06-27T03:20:23.121Z,24.32
2019-06-27T03:22:52.705Z,24.34
2019-06-27T03:25:22.179Z,24.33
2019-06-27T03:27:51.665Z,24.31
2019-06-27T03:30:21.181Z,24.30
2019-06-27T03:32:50.669Z,24.30
2019-06-27T03:35:20.068Z,24.27
2019-06-27T03:37:49.525Z,24.31
2019-06-27T03:40:19.006Z,24.36
2019-06-27T03:42:48.408Z,24.40
2019-06-27T03:45:18.133Z,24.43
2019-06-27T03:47:47.627Z,24.45
2019-06-27T03:50:17.497Z,24.48
2019-06-27T03:52:47.013Z,24.50
2019-06-27T03:55:16.711Z,24.52
2019-06-27T03:57:46.187Z,24.52
2019-06-27T04:00:23.065Z,24.49
2019-06-27T04:02:52.478Z,24.48
2019-06-27T04:05:21.973Z,24.52
2019-06-27T04:07:51.615Z,24.60
2019-06-27T04:10:21.111Z,24.67
2019-06-27T04:12:50.522Z,24.77
2019-06-27T04:15:20.030Z,24.80
2019-06-27T04:17:49.517Z,24.84
2019-06-27T04:20:19.011Z,24.83
2019-06-27T04:22:48.582Z,24.83
2019-06-27T04:25:18.066Z,24.86
2019-06-27T04:27:47.557Z,24.91
2019-06-27T04:30:17.270Z,24.91
2019-06-27T04:32:46.824Z,24.93
2019-06-27T04:35:16.247Z,25.00
2019-06-27T04:37:45.754Z,25.05
2019-06-27T04:40:15.249Z,25.10
2019-06-27T04:42:44.662Z,25.17
2019-06-27T04:45:14.172Z,25.27
2019-06-27T04:47:43.658Z,25.35
2019-06-27T04:50:13.056Z,25.43
2019-06-27T04:52:42.488Z,25.47
2019-06-27T04:55:11.999Z,25.52
2019-06-27T04:57:41.482Z,25.56
2019-06-27T05:00:10.964Z,25.64
2019-06-27T05:02:40.479Z,25.70
2019-06-27T05:05:09.955Z,25.74
2019-06-27T05:07:39.443Z,25.80
2019-06-27T05:10:08.958Z,25.88
2019-06-27T05:12:38.443Z,25.95
2019-06-27T05:15:08.423Z,26.03
2019-06-27T05:17:37.989Z,26.09
2019-06-27T05:20:07.485Z,26.18
2019-06-27T05:22:36.918Z,26.29
2019-06-27T05:25:06.528Z,26.33
2019-06-27T05:27:36.031Z,26.43
2019-06-27T05:30:09.829Z,26.47
2019-06-27T05:32:37.885Z,26.54
2019-06-27T05:35:07.373Z,26.58
2019-06-27T05:37:36.876Z,26.61
2019-06-27T05:40:09.369Z,26.65
2019-06-27T05:42:38.879Z,26.68
2019-06-27T05:45:08.494Z,26.73
2019-06-27T05:47:38.213Z,26.84
2019-06-27T05:50:10.984Z,26.94
2019-06-27T05:52:40.586Z,26.97
2019-06-27T05:55:10.199Z,27.07
2019-06-27T05:57:39.623Z,27.14
2019-06-27T06:00:26.229Z,27.20
2019-06-27T06:02:40.211Z,27.28
2019-06-27T06:05:09.721Z,27.33
2019-06-27T06:07:39.223Z,27.39
2019-06-27T06:10:08.693Z,27.44
2019-06-27T06:12:38.180Z,27.47
2019-06-27T06:15:07.991Z,27.50
2019-06-27T06:17:37.902Z,27.51
2019-06-27T06:20:08.422Z,27.56
2019-06-27T06:22:37.935Z,27.66
2019-06-27T06:25:07.419Z,27.77
2019-06-27T06:27:36.915Z,27.89
2019-06-27T06:30:07.154Z,27.96
2019-06-27T06:32:36.824Z,27.99
2019-06-27T06:35:09.377Z,28.04
2019-06-27T06:37:38.808Z,28.07
2019-06-27T06:40:08.279Z,28.10
2019-06-27T06:42:37.813Z,28.18
2019-06-27T06:45:07.865Z,28.24
2019-06-27T06:47:37.365Z,28.35
2019-06-27T06:50:06.945Z,28.37
2019-06-27T06:52:36.517Z,28.37
2019-06-27T06:55:07.293Z,28.43
2019-06-27T06:57:36.851Z,28.53
2019-06-27T07:00:06.451Z,28.63
2019-06-27T07:02:35.997Z,28.76
2019-06-27T07:05:06.474Z,28.85
2019-06-27T07:07:36.034Z,28.92
2019-06-27T07:10:08.375Z,29.01
2019-06-27T07:12:37.791Z,29.07
2019-06-27T07:15:08.404Z,29.18
2019-06-27T07:17:37.838Z,29.28
2019-06-27T07:20:07.311Z,29.35
2019-06-27T07:22:36.826Z,29.41
2019-06-27T07:25:07.298Z,29.54
2019-06-27T07:27:36.728Z,29.66
2019-06-27T07:30:06.667Z,29.70
2019-06-27T07:32:36.398Z,29.69
2019-06-27T07:35:07.827Z,29.77
2019-06-27T07:37:37.470Z,29.78
2019-06-27T07:40:08.758Z,29.95
2019-06-27T07:42:38.521Z,30.08
2019-06-27T07:45:08.558Z,30.12
2019-06-27T07:47:38.168Z,30.18
2019-06-27T07:50:10.424Z,30.19
2019-06-27T07:52:39.940Z,30.29
2019-06-27T07:55:09.463Z,30.37
2019-06-27T07:57:38.944Z,30.55
2019-06-27T08:00:10.208Z,30.64
2019-06-27T08:02:39.717Z,30.77
2019-06-27T08:05:09.304Z,30.87
2019-06-27T08:07:38.986Z,30.98
2019-06-27T08:10:08.662Z,31.11
2019-06-27T08:12:41.220Z,31.27
2019-06-27T08:15:11.186Z,31.39
2019-06-27T08:17:40.583Z,31.51
2019-06-27T08:20:10.067Z,31.62
2019-06-27T08:22:39.497Z,31.72
2019-06-27T08:25:09.384Z,31.83
2019-06-27T08:27:38.891Z,31.87
2019-06-27T08:30:09.835Z,31.88
2019-06-27T08:32:39.342Z,32.12
2019-06-27T08:35:08.834Z,32.38
2019-06-27T08:37:38.267Z,32.50
2019-06-27T08:40:08.081Z,32.63
2019-06-27T08:42:37.707Z,32.78
2019-06-27T08:45:07.723Z,32.78
2019-06-27T08:47:37.201Z,32.82
2019-06-27T08:50:08.882Z,32.93
2019-06-27T08:52:38.349Z,33.11
2019-06-27T08:55:07.825Z,33.35
2019-06-27T08:57:37.241Z,33.58
2019-06-27T09:00:08.208Z,33.77
2019-06-27T09:02:37.627Z,33.97
2019-06-27T09:05:09.886Z,34.18
2019-06-27T09:07:39.413Z,34.41
2019-06-27T09:10:08.891Z,34.63
2019-06-27T09:12:38.395Z,34.82
2019-06-27T09:15:07.887Z,34.98
2019-06-27T09:17:37.298Z,35.10
2019-06-27T09:20:08.477Z,35.29
2019-06-27T09:22:38.061Z,35.42
2019-06-27T09:25:09.167Z,35.41
2019-06-27T09:27:38.575Z,35.50
2019-06-27T09:30:10.262Z,35.71
2019-06-27T09:32:39.759Z,35.92
2019-06-27T09:35:09.378Z,36.21
2019-06-27T09:37:38.803Z,36.47
2019-06-27T09:40:10.177Z,36.63
2019-06-27T09:42:39.772Z,36.83
2019-06-27T09:45:09.209Z,37.12
2019-06-27T09:47:38.696Z,37.32
2019-06-27T09:50:08.175Z,37.54
2019-06-27T09:52:37.695Z,37.76
2019-06-27T09:55:07.458Z,37.92
2019-06-27T09:57:36.866Z,37.93
2019-06-27T10:00:10.497Z,38.02
2019-06-27T10:02:42.214Z,38.20
2019-06-27T10:05:11.315Z,38.44
2019-06-27T10:07:40.817Z,38.57
2019-06-27T10:10:10.303Z,38.81
2019-06-27T10:12:42.977Z,38.95
2019-06-27T10:15:11.017Z,39.13
2019-06-27T10:17:40.437Z,39.48
2019-06-27T10:20:09.918Z,39.57
2019-06-27T10:22:39.341Z,39.85
2019-06-27T10:25:09.442Z,40.14
2019-06-27T10:27:38.926Z,40.49
2019-06-27T10:30:08.425Z,40.55
2019-06-27T10:32:37.932Z,40.40
2019-06-27T10:35:08.110Z,40.30
2019-06-27T10:37:37.737Z,40.33
2019-06-27T10:40:10.041Z,40.44
2019-06-27T10:42:39.538Z,40.84
2019-06-27T10:45:08.974Z,41.23
2019-06-27T10:47:38.819Z,41.57
2019-06-27T10:50:08.514Z,41.59
2019-06-27T10:52:38.086Z,41.72
2019-06-27T10:55:08.557Z,41.95
2019-06-27T10:57:38.042Z,42.06
2019-06-27T11:00:07.957Z,42.04
2019-06-27T11:02:37.362Z,41.92
2019-06-27T11:05:08.178Z,41.87
2019-06-27T11:07:40.811Z,41.71
2019-06-27T11:10:08.908Z,41.80
2019-06-27T11:12:38.357Z,41.47
2019-06-27T11:15:09.420Z,41.65
2019-06-27T11:17:38.910Z,42.06
2019-06-27T11:20:08.399Z,42.49
2019-06-27T11:22:57.246Z,42.89
2019-06-27T11:25:26.774Z,43.00
2019-06-27T11:27:56.453Z,42.98
2019-06-27T11:30:25.985Z,42.90
2019-06-27T11:32:55.467Z,43.05
2019-06-27T11:35:24.961Z,43.18
2019-06-27T11:37:54.466Z,43.52
2019-06-27T11:40:23.971Z,44.08
2019-06-27T11:42:53.738Z,44.48
2019-06-27T11:45:23.241Z,44.83
2019-06-27T11:47:52.722Z,45.06
2019-06-27T11:50:22.209Z,44.98
2019-06-27T11:52:51.651Z,44.58
2019-06-27T11:55:21.148Z,44.14
2019-06-27T11:57:50.620Z,44.08
2019-06-27T12:00:20.258Z,44.20
2019-06-27T12:02:49.775Z,44.34
2019-06-27T12:05:19.383Z,44.88
2019-06-27T12:07:48.838Z,45.54
2019-06-27T12:10:18.316Z,45.80
2019-06-27T12:12:47.801Z,46.23
2019-06-27T12:15:17.297Z,46.41
2019-06-27T12:17:46.980Z,46.56
2019-06-27T12:20:16.483Z,46.93
2019-06-27T12:22:45.974Z,47.02
2019-06-27T12:25:15.446Z,46.76
2019-06-27T12:27:44.953Z,46.73
2019-06-27T12:30:14.439Z,46.30
2019-06-27T12:32:51.933Z,45.43
2019-06-27T12:35:15.094Z,45.64
2019-06-27T12:37:44.580Z,45.45
2019-06-27T12:40:14.089Z,44.75
2019-06-27T12:42:43.704Z,44.96
2019-06-27T12:45:13.885Z,45.67
2019-06-27T12:47:43.394Z,46.01
2019-06-27T12:50:13.177Z,46.12
2019-06-27T12:52:42.583Z,46.93
2019-06-27T12:55:12.026Z,46.96
2019-06-27T12:57:41.518Z,46.87
2019-06-27T13:00:10.988Z,46.98
2019-06-27T13:02:40.530Z,46.88
2019-06-27T13:05:09.931Z,46.90
2019-06-27T13:07:39.384Z,47.19
2019-06-27T13:10:09.424Z,47.79
2019-06-27T13:12:39.268Z,47.80
2019-06-27T13:15:08.747Z,48.33
2019-06-27T13:17:38.262Z,48.97
2019-06-27T13:20:08.491Z,50.53
2019-06-27T13:22:38.012Z,52.02
2019-06-27T13:25:07.515Z,52.11
2019-06-27T13:27:36.923Z,51.77
2019-06-27T13:30:09.154Z,52.16
2019-06-27T13:32:38.650Z,52.84
2019-06-27T13:35:08.429Z,53.84
2019-06-27T13:37:37.927Z,54.89
2019-06-27T13:40:07.732Z,53.32
2019-06-27T13:42:38.626Z,52.13
2019-06-27T13:45:08.361Z,52.32
2019-06-27T13:47:37.888Z,53.38
2019-06-27T13:50:07.660Z,54.46
2019-06-27T13:52:37.081Z,54.53
2019-06-27T13:55:06.588Z,54.45
2019-06-27T13:57:36.063Z,53.65
2019-06-27T14:00:10.565Z,54.45
2019-06-27T14:02:40.073Z,54.05
2019-06-27T14:05:09.527Z,53.52
2019-06-27T14:07:39.016Z,52.73
2019-06-27T14:10:08.622Z,52.21
2019-06-27T14:12:38.108Z,49.47
2019-06-27T14:15:10.722Z,46.44
2019-06-27T14:17:40.248Z,43.92
2019-06-27T14:20:09.875Z,42.23
2019-06-27T14:22:39.366Z,40.84
2019-06-27T14:25:08.883Z,39.77
2019-06-27T14:27:38.299Z,38.94
2019-06-27T14:30:08.388Z,38.33
2019-06-27T14:32:37.903Z,37.86
2019-06-27T14:35:15.425Z,37.92
2019-06-27T14:37:39.089Z,38.07
2019-06-27T14:40:10.147Z,38.43
2019-06-27T14:42:39.628Z,38.78
2019-06-27T14:45:09.979Z,38.99
2019-06-27T14:47:39.486Z,39.04
2019-06-27T14:50:09.795Z,39.10
2019-06-27T14:52:39.129Z,39.49
2019-06-27T14:55:08.569Z,40.52
2019-06-27T14:57:38.198Z,40.76
2019-06-27T15:00:08.618Z,40.71
2019-06-27T15:02:38.142Z,40.80
2019-06-27T15:05:07.932Z,40.42
2019-06-27T15:07:37.537Z,39.78
2019-06-27T15:10:09.883Z,39.45
2019-06-27T15:12:55.468Z,39.24
2019-06-27T15:15:11.358Z,38.85
2019-06-27T15:17:40.869Z,38.66
2019-06-27T15:20:10.434Z,38.40
2019-06-27T15:22:39.915Z,38.00
2019-06-27T15:25:10.317Z,37.91
2019-06-27T15:27:39.794Z,37.70
2019-06-27T15:30:09.192Z,37.29
2019-06-27T15:32:38.698Z,37.09
2019-06-27T15:35:08.185Z,36.85
2019-06-27T15:37:37.664Z,36.39
2019-06-27T15:40:20.769Z,35.58
2019-06-27T15:43:04.908Z,34.47
2019-06-27T15:45:46.938Z,33.91
2019-06-27T15:48:28.841Z,33.53
2019-06-27T15:51:09.557Z,33.52
2019-06-27T15:53:49.747Z,33.66
2019-06-27T15:56:32.733Z,33.78
2019-06-27T15:59:16.964Z,34.16
2019-06-27T16:01:59.289Z,35.15
2019-06-27T16:04:41.877Z,35.92
2019-06-27T16:07:23.772Z,35.58
2019-06-27T16:10:06.348Z,35.59
2019-06-27T16:12:47.330Z,35.26
2019-06-27T16:15:26.625Z,34.82
2019-06-27T16:18:11.966Z,35.19
2019-06-27T16:20:54.599Z,35.51
2019-06-27T16:23:28.131Z,35.71
2019-06-27T16:26:02.877Z,35.57
2019-06-27T16:28:47.002Z,35.44
2019-06-27T16:31:26.830Z,35.39
2019-06-27T16:34:12.225Z,35.28
2019-06-27T16:36:47.876Z,34.97
2019-06-27T16:39:31.428Z,34.90
2019-06-27T16:42:14.055Z,34.85
2019-06-27T16:44:58.627Z,34.44
2019-06-27T16:47:39.716Z,33.69
2019-06-27T16:50:20.901Z,33.11
2019-06-27T16:53:02.099Z,32.81
2019-06-27T16:55:40.842Z,32.77
2019-06-27T16:58:25.246Z,32.61
2019-06-27T17:01:02.564Z,32.44
2019-06-27T17:03:42.691Z,32.39
2019-06-27T17:06:40.451Z,32.22
2019-06-27T17:09:07.894Z,32.14
2019-06-27T17:11:37.408Z,31.87
2019-06-27T17:14:06.873Z,31.80
2019-06-27T17:16:36.346Z,31.87
2019-06-27T17:19:05.853Z,31.95
2019-06-27T17:21:35.324Z,31.89
2019-06-27T17:24:04.807Z,31.85
2019-06-27T17:26:34.303Z,31.86
2019-06-27T17:29:03.813Z,31.88
2019-06-27T17:31:33.408Z,31.83
2019-06-27T17:34:02.900Z,31.70
2019-06-27T17:36:32.308Z,31.54
2019-06-27T17:39:01.888Z,31.49
2019-06-27T17:41:31.493Z,31.52
2019-06-27T17:44:00.969Z,31.56
2019-06-27T17:46:30.381Z,31.58
2019-06-27T17:48:59.878Z,31.62
2019-06-27T17:51:29.351Z,31.71
2019-06-27T17:53:58.858Z,31.75
2019-06-27T17:56:28.361Z,31.70
2019-06-27T17:58:57.836Z,31.63
2019-06-27T18:01:27.315Z,31.66
2019-06-27T18:03:56.823Z,31.57
2019-06-27T18:06:26.269Z,31.50
2019-06-27T18:08:55.911Z,31.48
2019-06-27T18:11:25.395Z,31.50
2019-06-27T18:13:55.017Z,31.44
2019-06-27T18:16:24.511Z,31.36
2019-06-27T18:18:54.005Z,31.37
2019-06-27T18:21:23.523Z,31.29
2019-06-27T18:23:53.014Z,31.22
2019-06-27T18:26:22.499Z,31.14
2019-06-27T18:28:51.936Z,31.05
2019-06-27T18:31:21.416Z,30.97
2019-06-27T18:33:50.907Z,30.91
2019-06-27T18:36:20.431Z,30.80
2019-06-27T18:38:49.951Z,30.76
2019-06-27T18:41:19.476Z,30.73
2019-06-27T18:43:48.926Z,30.65
2019-06-27T18:46:18.335Z,30.46
2019-06-27T18:48:47.825Z,30.33
2019-06-27T18:51:17.317Z,30.27
2019-06-27T18:53:46.814Z,30.26
2019-06-27T18:56:16.292Z,30.25
2019-06-27T18:58:45.744Z,30.16
2019-06-27T19:01:15.161Z,30.12
2019-06-27T19:03:44.660Z,30.03
2019-06-27T19:06:14.162Z,29.97
2019-06-27T19:08:43.648Z,29.89
2019-06-27T19:11:13.140Z,29.85
2019-06-27T19:13:42.663Z,29.83
2019-06-27T19:16:12.165Z,29.83
2019-06-27T19:18:44.455Z,29.72
2019-06-27T19:21:19.811Z,29.65
2019-06-27T19:24:02.466Z,29.62
2019-06-27T19:26:31.986Z,29.62
2019-06-27T19:29:01.475Z,29.54
2019-06-27T19:31:30.954Z,29.50
2019-06-27T19:34:00.557Z,29.52
2019-06-27T19:36:30.028Z,29.41
2019-06-27T19:38:59.623Z,29.28
2019-06-27T19:41:29.156Z,29.19
2019-06-27T19:43:58.629Z,29.16
2019-06-27T19:46:28.102Z,29.19
2019-06-27T19:48:57.615Z,29.14
2019-06-27T19:51:27.086Z,29.14
2019-06-27T19:53:58.071Z,29.22
2019-06-27T19:56:27.889Z,29.21
2019-06-27T19:58:57.512Z,29.19
2019-06-27T20:01:26.998Z,29.16
2019-06-27T20:03:56.510Z,29.12
2019-06-27T20:06:25.996Z,29.13
2019-06-27T20:08:55.556Z,29.14
2019-06-27T20:11:25.148Z,29.04
2019-06-27T20:13:54.639Z,28.94
2019-06-27T20:16:24.139Z,28.84
2019-06-27T20:18:53.619Z,28.76
2019-06-27T20:21:23.101Z,28.76
2019-06-27T20:23:52.604Z,28.76
2019-06-27T20:26:22.084Z,28.77
2019-06-27T20:28:51.556Z,28.75
2019-06-27T20:31:21.037Z,28.72
2019-06-27T20:33:50.583Z,28.67
2019-06-27T20:36:20.064Z,28.63
2019-06-27T20:38:49.508Z,28.53
2019-06-27T20:41:18.982Z,28.47
2019-06-27T20:43:48.452Z,28.34
2019-06-27T20:46:17.959Z,28.33
2019-06-27T20:48:47.459Z,28.30
2019-06-27T20:51:16.956Z,28.24
2019-06-27T20:53:46.493Z,28.24
2019-06-27T20:56:15.994Z,28.25
2019-06-27T20:58:45.462Z,28.26
2019-06-27T21:01:14.985Z,28.26
2019-06-27T21:03:44.481Z,28.25
2019-06-27T21:06:14.026Z,28.20
2019-06-27T21:08:51.301Z,28.16
2019-06-27T21:11:14.833Z,28.10
2019-06-27T21:13:44.316Z,28.02
2019-06-27T21:16:13.845Z,27.94
2019-06-27T21:18:43.372Z,27.83
2019-06-27T21:21:12.849Z,27.79
2019-06-27T21:23:42.359Z,27.73
2019-06-27T21:26:11.963Z,27.67
2019-06-27T21:28:41.449Z,27.62
2019-06-27T21:31:10.944Z,27.60
2019-06-27T21:33:40.445Z,27.60
2019-06-27T21:36:10.030Z,27.65
2019-06-27T21:38:39.538Z,27.55
2019-06-27T21:41:10.913Z,27.48
2019-06-27T21:43:40.311Z,27.37
2019-06-27T21:46:09.858Z,27.33
2019-06-27T21:48:39.371Z,27.33
2019-06-27T21:51:08.868Z,27.26
2019-06-27T21:53:38.359Z,27.20
2019-06-27T21:56:07.838Z,27.14
2019-06-27T21:58:37.309Z,27.11
2019-06-27T22:01:07.016Z,27.06
2019-06-27T22:03:36.497Z,27.04
2019-06-27T22:06:05.984Z,27.04
2019-06-27T22:08:35.503Z,27.01
2019-06-27T22:11:04.933Z,26.97
2019-06-27T22:13:34.407Z,26.94
2019-06-27T22:16:03.953Z,26.95
2019-06-27T22:18:33.494Z,26.92
2019-06-27T22:21:02.918Z,26.81
2019-06-27T22:23:32.590Z,26.84
2019-06-27T22:26:02.081Z,26.86
2019-06-27T22:28:31.564Z,26.83
2019-06-27T22:31:01.069Z,26.80
2019-06-27T22:33:30.541Z,26.71
2019-06-27T22:35:59.918Z,26.61
2019-06-27T22:38:47.364Z,26.62
2019-06-27T22:41:34.698Z,26.60
2019-06-27T22:44:22.090Z,26.57
2019-06-27T22:47:09.535Z,26.51
2019-06-27T22:49:38.539Z,26.48
2019-06-27T22:52:15.715Z,26.46
2019-06-27T22:54:46.798Z,26.48
2019-06-27T22:57:16.283Z,26.47
2019-06-27T22:59:45.981Z,26.43
2019-06-27T23:02:15.385Z,26.43
2019-06-27T23:04:44.791Z,26.43
2019-06-27T23:07:14.321Z,26.44
2019-06-27T23:09:56.614Z,26.39
2019-06-27T23:12:15.007Z,26.36
2019-06-27T23:14:44.554Z,26.36
2019-06-27T23:17:14.025Z,26.34
2019-06-27T23:19:43.519Z,26.24
2019-06-27T23:22:13.027Z,26.15
2019-06-27T23:24:42.411Z,26.08
2019-06-27T23:27:12.271Z,25.99
2019-06-27T23:29:41.777Z,25.95
2019-06-27T23:32:11.254Z,25.83
2019-06-27T23:34:40.733Z,25.73
2019-06-27T23:37:10.255Z,25.69
2019-06-27T23:39:39.823Z,25.66
2019-06-27T23:42:09.317Z,25.66
2019-06-27T23:44:38.821Z,25.67
2019-06-27T23:47:08.296Z,25.63
2019-06-27T23:49:37.710Z,25.56
2019-06-27T23:52:07.211Z,25.51
2019-06-27T23:54:36.630Z,25.53
2019-06-27T23:57:06.105Z,25.58
2019-06-27T23:59:35.621Z,25.53
